sensor_id;sensor_type;location;lat;lon;timestamp;temperature;humidity
24338;DHT22;12457;50.832;4.346;2024-02-28T00:02:22;4.70;99.90
24338;DHT22;12457;50.832;4.346;2024-02-28T00:04:48;4.70;99.90
24338;DHT22;12457;50.832;4.346;2024-02-28T00:07:15;4.70;99.90
24338;DHT22;12457;50.832;4.346;2024-02-28T00:09:40;4.70;99.90
24338;DHT22;12457;50.832;4.346;2024-02-28T00:12:06;4.70;99.90
24338;DHT22;12457;50.832;4.346;2024-02-28T00:14:32;4.70;99.90
24338;DHT22;12457;50.832;4.346;2024-02-28T00:16:57;4.70;99.90
24338;DHT22;12457;50.832;4.346;2024-02-28T00:19:23;4.60;99.90
24338;DHT22;12457;50.832;4.346;2024-02-28T00:21:50;4.80;99.90
24338;DHT22;12457;50.832;4.346;2024-02-28T00:24:19;4.80;99.90
24338;DHT22;12457;50.832;4.346;2024-02-28T00:26:45;4.70;99.90
24338;DHT22;12457;50.832;4.346;2024-02-28T00:29:11;4.70;99.90
24338;DHT22;12457;50.832;4.346;2024-02-28T00:31:36;4.60;99.90
24338;DHT22;12457;50.832;4.346;2024-02-28T00:34:02;4.70;99.90
24338;DHT22;12457;50.832;4.346;2024-02-28T00:36:28;4.70;99.90
24338;DHT22;12457;50.832;4.346;2024-02-28T00:38:58;4.70;99.90
24338;DHT22;12457;50.832;4.346;2024-02-28T00:41:24;4.70;99.90
24338;DHT22;12457;50.832;4.346;2024-02-28T00:43:50;4.70;99.90
24338;DHT22;12457;50.832;4.346;2024-02-28T00:46:15;4.70;99.90
24338;DHT22;12457;50.832;4.346;2024-02-28T00:48:41;4.70;99.90
24338;DHT22;12457;50.832;4.346;2024-02-28T00:51:07;4.80;99.90
24338;DHT22;12457;50.832;4.346;2024-02-28T00:53:34;4.80;99.90
24338;DHT22;12457;50.832;4.346;2024-02-28T00:55:59;4.90;99.90
24338;DHT22;12457;50.832;4.346;2024-02-28T00:58:25;4.90;99.90
24338;DHT22;12457;50.832;4.346;2024-02-28T01:00:54;4.80;99.90
24338;DHT22;12457;50.832;4.346;2024-02-28T01:03:20;4.70;99.90
24338;DHT22;12457;50.832;4.346;2024-02-28T01:05:46;4.50;99.90
24338;DHT22;12457;50.832;4.346;2024-02-28T01:08:12;4.40;99.90
24338;DHT22;12457;50.832;4.346;2024-02-28T01:10:37;4.40;99.90
24338;DHT22;12457;50.832;4.346;2024-02-28T01:13:03;4.40;99.90
24338;DHT22;12457;50.832;4.346;2024-02-28T01:15:29;4.40;99.90
24338;DHT22;12457;50.832;4.346;2024-02-28T01:17:55;4.40;99.90
24338;DHT22;12457;50.832;4.346;2024-02-28T01:20:20;4.30;99.90
24338;DHT22;12457;50.832;4.346;2024-02-28T01:22:52;4.20;99.90
24338;DHT22;12457;50.832;4.346;2024-02-28T01:25:17;4.30;99.90
24338;DHT22;12457;50.832;4.346;2024-02-28T01:27:44;4.30;99.90
24338;DHT22;12457;50.832;4.346;2024-02-28T01:30:10;4.40;99.90
24338;DHT22;12457;50.832;4.346;2024-02-28T01:32:36;4.30;99.90
24338;DHT22;12457;50.832;4.346;2024-02-28T01:35:04;4.30;99.90
24338;DHT22;12457;50.832;4.346;2024-02-28T01:37:30;4.20;99.90
24338;DHT22;12457;50.832;4.346;2024-02-28T01:39:56;4.20;99.90
24338;DHT22;12457;50.832;4.346;2024-02-28T01:42:21;4.20;99.90
24338;DHT22;12457;50.832;4.346;2024-02-28T01:44:48;4.20;99.90
24338;DHT22;12457;50.832;4.346;2024-02-28T01:47:14;4.20;99.90
24338;DHT22;12457;50.832;4.346;2024-02-28T01:49:41;4.10;99.90
24338;DHT22;12457;50.832;4.346;2024-02-28T01:52:07;4.10;99.90
24338;DHT22;12457;50.832;4.346;2024-02-28T01:54:34;4.10;99.90
24338;DHT22;12457;50.832;4.346;2024-02-28T01:57:01;4.10;99.90
24338;DHT22;12457;50.832;4.346;2024-02-28T01:59:27;4.10;99.90
24338;DHT22;12457;50.832;4.346;2024-02-28T02:01:54;4.00;99.90
24338;DHT22;12457;50.832;4.346;2024-02-28T02:04:20;4.00;99.90
24338;DHT22;12457;50.832;4.346;2024-02-28T02:06:46;4.00;99.90
24338;DHT22;12457;50.832;4.346;2024-02-28T02:09:13;4.00;99.90
24338;DHT22;12457;50.832;4.346;2024-02-28T02:11:39;3.90;99.90
24338;DHT22;12457;50.832;4.346;2024-02-28T02:14:05;3.80;99.90
24338;DHT22;12457;50.832;4.346;2024-02-28T02:16:31;3.70;99.90
24338;DHT22;12457;50.832;4.346;2024-02-28T02:18:57;3.60;99.90
24338;DHT22;12457;50.832;4.346;2024-02-28T02:21:24;3.60;99.90
24338;DHT22;12457;50.832;4.346;2024-02-28T02:23:52;3.60;99.90
24338;DHT22;12457;50.832;4.346;2024-02-28T02:26:18;3.60;99.90
24338;DHT22;12457;50.832;4.346;2024-02-28T02:28:43;3.60;99.90
24338;DHT22;12457;50.832;4.346;2024-02-28T02:31:11;3.60;99.90
24338;DHT22;12457;50.832;4.346;2024-02-28T02:33:37;3.50;99.90
24338;DHT22;12457;50.832;4.346;2024-02-28T02:36:03;3.50;99.90
24338;DHT22;12457;50.832;4.346;2024-02-28T02:38:29;3.60;99.90
24338;DHT22;12457;50.832;4.346;2024-02-28T02:40:54;3.60;99.90
24338;DHT22;12457;50.832;4.346;2024-02-28T02:43:20;3.50;99.90
24338;DHT22;12457;50.832;4.346;2024-02-28T02:45:46;3.60;99.90
24338;DHT22;12457;50.832;4.346;2024-02-28T02:48:11;3.70;99.90
24338;DHT22;12457;50.832;4.346;2024-02-28T02:50:37;3.80;99.90
24338;DHT22;12457;50.832;4.346;2024-02-28T02:53:03;3.80;99.90
24338;DHT22;12457;50.832;4.346;2024-02-28T02:55:41;3.70;99.90
24338;DHT22;12457;50.832;4.346;2024-02-28T02:58:07;3.70;99.90
24338;DHT22;12457;50.832;4.346;2024-02-28T03:00:32;3.70;99.90
24338;DHT22;12457;50.832;4.346;2024-02-28T03:02:58;3.70;99.90
24338;DHT22;12457;50.832;4.346;2024-02-28T03:05:23;3.80;99.90
24338;DHT22;12457;50.832;4.346;2024-02-28T03:07:50;3.70;99.90
24338;DHT22;12457;50.832;4.346;2024-02-28T03:10:16;3.80;99.90
24338;DHT22;12457;50.832;4.346;2024-02-28T03:12:42;3.80;99.90
24338;DHT22;12457;50.832;4.346;2024-02-28T03:15:08;3.80;99.90
24338;DHT22;12457;50.832;4.346;2024-02-28T03:17:33;3.70;99.90
24338;DHT22;12457;50.832;4.346;2024-02-28T03:19:59;3.70;99.90
24338;DHT22;12457;50.832;4.346;2024-02-28T03:22:25;3.60;99.90
24338;DHT22;12457;50.832;4.346;2024-02-28T03:24:50;3.60;99.90
24338;DHT22;12457;50.832;4.346;2024-02-28T03:27:16;3.60;99.90
24338;DHT22;12457;50.832;4.346;2024-02-28T03:29:42;3.60;99.90
24338;DHT22;12457;50.832;4.346;2024-02-28T03:32:08;3.50;99.90
24338;DHT22;12457;50.832;4.346;2024-02-28T03:34:34;3.40;99.90
24338;DHT22;12457;50.832;4.346;2024-02-28T03:37:00;3.30;99.90
24338;DHT22;12457;50.832;4.346;2024-02-28T03:39:28;3.30;99.90
24338;DHT22;12457;50.832;4.346;2024-02-28T03:41:54;3.30;99.90
24338;DHT22;12457;50.832;4.346;2024-02-28T03:44:20;3.20;99.90
24338;DHT22;12457;50.832;4.346;2024-02-28T03:46:46;3.10;99.90
24338;DHT22;12457;50.832;4.346;2024-02-28T03:49:12;3.10;99.90
24338;DHT22;12457;50.832;4.346;2024-02-28T03:51:41;3.20;99.90
24338;DHT22;12457;50.832;4.346;2024-02-28T03:54:07;3.20;99.90
24338;DHT22;12457;50.832;4.346;2024-02-28T03:56:33;3.20;99.90
24338;DHT22;12457;50.832;4.346;2024-02-28T03:59:00;3.20;99.90
24338;DHT22;12457;50.832;4.346;2024-02-28T04:01:26;3.20;99.90
24338;DHT22;12457;50.832;4.346;2024-02-28T04:03:52;3.30;99.90
24338;DHT22;12457;50.832;4.346;2024-02-28T04:06:18;3.30;99.90
24338;DHT22;12457;50.832;4.346;2024-02-28T04:08:43;3.10;99.90
24338;DHT22;12457;50.832;4.346;2024-02-28T04:11:09;3.10;99.90
24338;DHT22;12457;50.832;4.346;2024-02-28T04:13:35;3.10;99.90
24338;DHT22;12457;50.832;4.346;2024-02-28T04:16:02;3.00;99.90
24338;DHT22;12457;50.832;4.346;2024-02-28T04:18:29;3.00;99.90
24338;DHT22;12457;50.832;4.346;2024-02-28T04:20:55;3.00;99.90
24338;DHT22;12457;50.832;4.346;2024-02-28T04:23:21;3.00;99.90
24338;DHT22;12457;50.832;4.346;2024-02-28T04:25:47;3.20;99.90
24338;DHT22;12457;50.832;4.346;2024-02-28T04:28:12;3.20;99.90
24338;DHT22;12457;50.832;4.346;2024-02-28T04:30:38;3.20;99.90
24338;DHT22;12457;50.832;4.346;2024-02-28T04:33:04;3.20;99.90
24338;DHT22;12457;50.832;4.346;2024-02-28T04:35:29;3.30;99.90
24338;DHT22;12457;50.832;4.346;2024-02-28T04:37:55;3.30;99.90
24338;DHT22;12457;50.832;4.346;2024-02-28T04:40:21;3.40;99.90
24338;DHT22;12457;50.832;4.346;2024-02-28T04:42:48;3.40;99.90
24338;DHT22;12457;50.832;4.346;2024-02-28T04:45:13;3.40;99.90
24338;DHT22;12457;50.832;4.346;2024-02-28T04:47:39;3.40;99.90
24338;DHT22;12457;50.832;4.346;2024-02-28T04:50:05;3.30;99.90
24338;DHT22;12457;50.832;4.346;2024-02-28T04:52:32;3.40;99.90
24338;DHT22;12457;50.832;4.346;2024-02-28T04:55:01;3.40;99.90
24338;DHT22;12457;50.832;4.346;2024-02-28T04:57:27;3.40;99.90
24338;DHT22;12457;50.832;4.346;2024-02-28T04:59:53;3.40;99.90
24338;DHT22;12457;50.832;4.346;2024-02-28T05:02:18;3.40;99.90
24338;DHT22;12457;50.832;4.346;2024-02-28T05:04:44;3.40;99.90
24338;DHT22;12457;50.832;4.346;2024-02-28T05:07:10;3.50;99.90
24338;DHT22;12457;50.832;4.346;2024-02-28T05:09:36;3.50;99.90
24338;DHT22;12457;50.832;4.346;2024-02-28T05:12:02;3.60;99.90
24338;DHT22;12457;50.832;4.346;2024-02-28T05:14:27;3.60;99.90
24338;DHT22;12457;50.832;4.346;2024-02-28T05:16:53;3.70;99.90
24338;DHT22;12457;50.832;4.346;2024-02-28T05:19:19;3.70;99.90
24338;DHT22;12457;50.832;4.346;2024-02-28T05:21:45;3.80;99.90
24338;DHT22;12457;50.832;4.346;2024-02-28T05:24:11;3.90;99.90
24338;DHT22;12457;50.832;4.346;2024-02-28T05:26:38;3.90;99.90
24338;DHT22;12457;50.832;4.346;2024-02-28T05:29:04;4.00;99.90
24338;DHT22;12457;50.832;4.346;2024-02-28T05:31:31;4.10;99.90
24338;DHT22;12457;50.832;4.346;2024-02-28T05:34:00;4.20;99.90
24338;DHT22;12457;50.832;4.346;2024-02-28T05:36:28;4.20;99.90
24338;DHT22;12457;50.832;4.346;2024-02-28T05:38:56;4.30;99.90
24338;DHT22;12457;50.832;4.346;2024-02-28T05:41:43;4.30;99.90
24338;DHT22;12457;50.832;4.346;2024-02-28T05:44:09;4.30;99.90
24338;DHT22;12457;50.832;4.346;2024-02-28T05:46:35;4.30;99.90
24338;DHT22;12457;50.832;4.346;2024-02-28T05:49:02;4.40;99.90
24338;DHT22;12457;50.832;4.346;2024-02-28T05:51:28;4.40;99.90
24338;DHT22;12457;50.832;4.346;2024-02-28T05:53:54;4.40;99.90
24338;DHT22;12457;50.832;4.346;2024-02-28T05:56:19;4.40;99.90
24338;DHT22;12457;50.832;4.346;2024-02-28T05:58:46;4.50;99.90
24338;DHT22;12457;50.832;4.346;2024-02-28T06:01:15;4.50;99.90
24338;DHT22;12457;50.832;4.346;2024-02-28T06:03:42;4.50;99.90
24338;DHT22;12457;50.832;4.346;2024-02-28T06:06:10;4.60;99.90
24338;DHT22;12457;50.832;4.346;2024-02-28T06:08:38;4.70;99.90
24338;DHT22;12457;50.832;4.346;2024-02-28T06:11:04;4.70;99.90
24338;DHT22;12457;50.832;4.346;2024-02-28T06:13:31;4.80;99.90
24338;DHT22;12457;50.832;4.346;2024-02-28T06:15:56;4.90;99.90
24338;DHT22;12457;50.832;4.346;2024-02-28T06:18:23;4.80;99.90
24338;DHT22;12457;50.832;4.346;2024-02-28T06:20:52;4.80;99.90
24338;DHT22;12457;50.832;4.346;2024-02-28T06:23:18;4.90;99.90
24338;DHT22;12457;50.832;4.346;2024-02-28T06:25:44;5.00;99.90
24338;DHT22;12457;50.832;4.346;2024-02-28T06:28:10;5.10;99.90
24338;DHT22;12457;50.832;4.346;2024-02-28T06:30:35;5.20;99.90
24338;DHT22;12457;50.832;4.346;2024-02-28T06:33:01;5.30;99.90
24338;DHT22;12457;50.832;4.346;2024-02-28T06:35:28;5.40;99.90
24338;DHT22;12457;50.832;4.346;2024-02-28T06:37:53;5.40;99.90
24338;DHT22;12457;50.832;4.346;2024-02-28T06:40:22;5.50;99.90
24338;DHT22;12457;50.832;4.346;2024-02-28T06:42:48;5.60;99.90
24338;DHT22;12457;50.832;4.346;2024-02-28T06:45:14;5.60;99.90
24338;DHT22;12457;50.832;4.346;2024-02-28T06:47:40;5.70;99.90
24338;DHT22;12457;50.832;4.346;2024-02-28T06:50:06;5.80;99.90
24338;DHT22;12457;50.832;4.346;2024-02-28T06:52:33;5.80;99.90
24338;DHT22;12457;50.832;4.346;2024-02-28T06:55:00;5.80;99.90
24338;DHT22;12457;50.832;4.346;2024-02-28T06:57:29;6.00;99.90
24338;DHT22;12457;50.832;4.346;2024-02-28T06:59:54;6.10;99.90
24338;DHT22;12457;50.832;4.346;2024-02-28T07:02:20;6.10;99.90
24338;DHT22;12457;50.832;4.346;2024-02-28T07:04:46;6.10;99.90
24338;DHT22;12457;50.832;4.346;2024-02-28T07:07:11;6.10;99.90
24338;DHT22;12457;50.832;4.346;2024-02-28T07:09:38;6.10;99.90
24338;DHT22;12457;50.832;4.346;2024-02-28T07:12:04;6.10;99.90
24338;DHT22;12457;50.832;4.346;2024-02-28T07:14:29;6.10;99.90
24338;DHT22;12457;50.832;4.346;2024-02-28T07:16:55;6.20;99.90
24338;DHT22;12457;50.832;4.346;2024-02-28T07:19:21;6.30;99.90
24338;DHT22;12457;50.832;4.346;2024-02-28T07:21:46;6.30;99.90
24338;DHT22;12457;50.832;4.346;2024-02-28T07:24:12;6.40;99.90
24338;DHT22;12457;50.832;4.346;2024-02-28T07:26:39;6.50;99.90
24338;DHT22;12457;50.832;4.346;2024-02-28T07:29:06;6.70;99.90
24338;DHT22;12457;50.832;4.346;2024-02-28T07:31:32;6.70;99.90
24338;DHT22;12457;50.832;4.346;2024-02-28T07:33:57;6.80;99.90
24338;DHT22;12457;50.832;4.346;2024-02-28T07:36:23;6.90;99.90
24338;DHT22;12457;50.832;4.346;2024-02-28T07:38:49;6.90;99.90
24338;DHT22;12457;50.832;4.346;2024-02-28T07:41:14;7.10;99.90
24338;DHT22;12457;50.832;4.346;2024-02-28T07:43:43;7.10;99.90
24338;DHT22;12457;50.832;4.346;2024-02-28T07:46:10;7.20;99.90
24338;DHT22;12457;50.832;4.346;2024-02-28T07:48:37;7.30;99.90
24338;DHT22;12457;50.832;4.346;2024-02-28T07:51:06;7.50;99.90
24338;DHT22;12457;50.832;4.346;2024-02-28T07:53:32;7.60;99.90
24338;DHT22;12457;50.832;4.346;2024-02-28T07:55:58;7.60;99.90
24338;DHT22;12457;50.832;4.346;2024-02-28T07:58:24;7.60;99.90
24338;DHT22;12457;50.832;4.346;2024-02-28T08:00:50;7.70;99.90
24338;DHT22;12457;50.832;4.346;2024-02-28T08:03:18;7.70;99.90
24338;DHT22;12457;50.832;4.346;2024-02-28T08:05:43;7.80;99.90
24338;DHT22;12457;50.832;4.346;2024-02-28T08:08:10;7.80;99.90
24338;DHT22;12457;50.832;4.346;2024-02-28T08:10:37;7.80;99.90
24338;DHT22;12457;50.832;4.346;2024-02-28T08:13:07;7.80;99.90
24338;DHT22;12457;50.832;4.346;2024-02-28T08:15:33;7.90;99.90
24338;DHT22;12457;50.832;4.346;2024-02-28T08:17:58;8.00;99.90
24338;DHT22;12457;50.832;4.346;2024-02-28T08:20:24;8.10;99.90
24338;DHT22;12457;50.832;4.346;2024-02-28T08:22:51;8.10;99.90
24338;DHT22;12457;50.832;4.346;2024-02-28T08:25:21;8.20;99.90
24338;DHT22;12457;50.832;4.346;2024-02-28T08:27:47;8.20;99.90
24338;DHT22;12457;50.832;4.346;2024-02-28T08:30:13;8.20;99.90
24338;DHT22;12457;50.832;4.346;2024-02-28T08:32:41;8.20;99.90
24338;DHT22;12457;50.832;4.346;2024-02-28T08:35:08;8.20;99.90
24338;DHT22;12457;50.832;4.346;2024-02-28T08:37:34;8.30;99.90
24338;DHT22;12457;50.832;4.346;2024-02-28T08:39:59;8.30;99.90
24338;DHT22;12457;50.832;4.346;2024-02-28T08:42:25;8.30;99.90
24338;DHT22;12457;50.832;4.346;2024-02-28T08:44:54;8.40;99.90
24338;DHT22;12457;50.832;4.346;2024-02-28T08:47:25;8.60;99.90
24338;DHT22;12457;50.832;4.346;2024-02-28T08:49:53;8.50;99.90
24338;DHT22;12457;50.832;4.346;2024-02-28T08:52:19;8.50;99.90
24338;DHT22;12457;50.832;4.346;2024-02-28T08:54:45;8.60;99.90
24338;DHT22;12457;50.832;4.346;2024-02-28T08:57:20;8.60;99.90
24338;DHT22;12457;50.832;4.346;2024-02-28T08:59:47;8.60;99.90
24338;DHT22;12457;50.832;4.346;2024-02-28T09:02:13;8.70;99.90
24338;DHT22;12457;50.832;4.346;2024-02-28T09:04:39;8.60;99.90
24338;DHT22;12457;50.832;4.346;2024-02-28T09:07:04;8.60;99.90
24338;DHT22;12457;50.832;4.346;2024-02-28T09:09:30;8.70;99.90
24338;DHT22;12457;50.832;4.346;2024-02-28T09:12:00;8.60;99.90
24338;DHT22;12457;50.832;4.346;2024-02-28T09:14:27;8.70;99.90
24338;DHT22;12457;50.832;4.346;2024-02-28T09:16:53;8.70;99.90
24338;DHT22;12457;50.832;4.346;2024-02-28T09:19:21;8.70;99.90
24338;DHT22;12457;50.832;4.346;2024-02-28T09:21:47;8.80;99.90
24338;DHT22;12457;50.832;4.346;2024-02-28T09:24:13;8.90;99.90
24338;DHT22;12457;50.832;4.346;2024-02-28T09:26:39;8.90;99.90
24338;DHT22;12457;50.832;4.346;2024-02-28T09:29:05;8.90;99.90
24338;DHT22;12457;50.832;4.346;2024-02-28T09:31:30;8.90;99.90
24338;DHT22;12457;50.832;4.346;2024-02-28T09:33:56;9.10;99.90
24338;DHT22;12457;50.832;4.346;2024-02-28T09:36:24;9.10;99.90
24338;DHT22;12457;50.832;4.346;2024-02-28T09:38:49;8.90;99.90
24338;DHT22;12457;50.832;4.346;2024-02-28T09:41:15;9.00;99.90
24338;DHT22;12457;50.832;4.346;2024-02-28T09:43:45;8.80;99.90
24338;DHT22;12457;50.832;4.346;2024-02-28T09:46:12;8.90;99.90
24338;DHT22;12457;50.832;4.346;2024-02-28T09:48:40;8.90;99.90
24338;DHT22;12457;50.832;4.346;2024-02-28T09:51:06;9.10;99.90
24338;DHT22;12457;50.832;4.346;2024-02-28T09:53:32;9.20;99.90
24338;DHT22;12457;50.832;4.346;2024-02-28T09:55:58;9.20;99.90
24338;DHT22;12457;50.832;4.346;2024-02-28T09:58:25;9.40;99.90
24338;DHT22;12457;50.832;4.346;2024-02-28T10:00:55;9.40;99.90
24338;DHT22;12457;50.832;4.346;2024-02-28T10:03:22;9.60;99.90
24338;DHT22;12457;50.832;4.346;2024-02-28T10:05:50;9.70;99.90
24338;DHT22;12457;50.832;4.346;2024-02-28T10:08:16;9.80;99.90
24338;DHT22;12457;50.832;4.346;2024-02-28T10:10:46;9.90;99.90
24338;DHT22;12457;50.832;4.346;2024-02-28T10:13:13;10.00;99.90
24338;DHT22;12457;50.832;4.346;2024-02-28T10:15:38;10.00;99.90
24338;DHT22;12457;50.832;4.346;2024-02-28T10:18:04;10.00;99.90
24338;DHT22;12457;50.832;4.346;2024-02-28T10:20:31;10.30;99.90
24338;DHT22;12457;50.832;4.346;2024-02-28T10:22:56;10.50;99.90
24338;DHT22;12457;50.832;4.346;2024-02-28T10:25:22;10.70;99.90
24338;DHT22;12457;50.832;4.346;2024-02-28T10:27:49;10.60;99.90
24338;DHT22;12457;50.832;4.346;2024-02-28T10:30:15;10.90;99.90
24338;DHT22;12457;50.832;4.346;2024-02-28T10:32:49;10.90;99.90
24338;DHT22;12457;50.832;4.346;2024-02-28T10:35:17;10.90;99.90
24338;DHT22;12457;50.832;4.346;2024-02-28T10:37:45;11.00;99.90
24338;DHT22;12457;50.832;4.346;2024-02-28T10:40:13;11.30;99.90
24338;DHT22;12457;50.832;4.346;2024-02-28T10:42:43;11.40;99.90
24338;DHT22;12457;50.832;4.346;2024-02-28T10:45:12;11.50;99.90
24338;DHT22;12457;50.832;4.346;2024-02-28T10:47:41;11.30;99.90
24338;DHT22;12457;50.832;4.346;2024-02-28T10:50:07;11.30;99.90
24338;DHT22;12457;50.832;4.346;2024-02-28T10:52:34;11.40;99.90
24338;DHT22;12457;50.832;4.346;2024-02-28T10:55:05;11.30;99.90
24338;DHT22;12457;50.832;4.346;2024-02-28T10:57:33;11.40;99.90
24338;DHT22;12457;50.832;4.346;2024-02-28T11:00:00;11.70;99.90
24338;DHT22;12457;50.832;4.346;2024-02-28T11:02:26;11.80;99.90
24338;DHT22;12457;50.832;4.346;2024-02-28T11:04:52;11.80;99.90
24338;DHT22;12457;50.832;4.346;2024-02-28T11:07:21;11.80;99.90
24338;DHT22;12457;50.832;4.346;2024-02-28T11:09:54;11.80;99.90
24338;DHT22;12457;50.832;4.346;2024-02-28T11:12:29;11.80;99.90
24338;DHT22;12457;50.832;4.346;2024-02-28T11:14:56;11.90;99.90
24338;DHT22;12457;50.832;4.346;2024-02-28T11:17:26;11.80;99.90
24338;DHT22;12457;50.832;4.346;2024-02-28T11:19:53;12.00;99.90
24338;DHT22;12457;50.832;4.346;2024-02-28T11:22:20;12.20;99.90
24338;DHT22;12457;50.832;4.346;2024-02-28T11:24:49;12.30;99.90
24338;DHT22;12457;50.832;4.346;2024-02-28T11:27:15;12.40;99.90
24338;DHT22;12457;50.832;4.346;2024-02-28T11:29:41;12.50;99.90
24338;DHT22;12457;50.832;4.346;2024-02-28T11:32:07;12.70;99.90
24338;DHT22;12457;50.832;4.346;2024-02-28T11:34:36;12.70;99.90
24338;DHT22;12457;50.832;4.346;2024-02-28T11:37:03;12.60;99.90
24338;DHT22;12457;50.832;4.346;2024-02-28T11:39:29;12.70;99.90
24338;DHT22;12457;50.832;4.346;2024-02-28T11:42:17;12.70;99.90
24338;DHT22;12457;50.832;4.346;2024-02-28T11:44:43;12.80;99.90
24338;DHT22;12457;50.832;4.346;2024-02-28T11:47:09;12.80;99.90
24338;DHT22;12457;50.832;4.346;2024-02-28T11:49:38;12.90;99.90
24338;DHT22;12457;50.832;4.346;2024-02-28T11:52:06;12.90;99.90
24338;DHT22;12457;50.832;4.346;2024-02-28T11:54:32;13.00;99.90
24338;DHT22;12457;50.832;4.346;2024-02-28T11:56:58;13.00;99.90
24338;DHT22;12457;50.832;4.346;2024-02-28T11:59:24;13.10;99.90
24338;DHT22;12457;50.832;4.346;2024-02-28T12:01:50;13.00;99.90
24338;DHT22;12457;50.832;4.346;2024-02-28T12:04:17;12.90;99.90
24338;DHT22;12457;50.832;4.346;2024-02-28T12:06:43;13.10;99.90
24338;DHT22;12457;50.832;4.346;2024-02-28T12:09:12;13.20;99.90
24338;DHT22;12457;50.832;4.346;2024-02-28T12:11:41;13.20;99.90
24338;DHT22;12457;50.832;4.346;2024-02-28T12:14:07;13.20;99.90
24338;DHT22;12457;50.832;4.346;2024-02-28T12:16:38;13.30;99.90
24338;DHT22;12457;50.832;4.346;2024-02-28T12:19:10;13.50;99.90
24338;DHT22;12457;50.832;4.346;2024-02-28T12:21:37;13.50;99.90
24338;DHT22;12457;50.832;4.346;2024-02-28T12:24:07;13.60;99.90
24338;DHT22;12457;50.832;4.346;2024-02-28T12:26:34;13.70;99.90
24338;DHT22;12457;50.832;4.346;2024-02-28T12:29:00;13.80;99.90
24338;DHT22;12457;50.832;4.346;2024-02-28T12:31:27;13.80;99.90
24338;DHT22;12457;50.832;4.346;2024-02-28T12:33:52;13.80;99.90
24338;DHT22;12457;50.832;4.346;2024-02-28T12:36:19;13.80;99.90
24338;DHT22;12457;50.832;4.346;2024-02-28T12:38:45;13.60;99.90
24338;DHT22;12457;50.832;4.346;2024-02-28T12:41:11;13.60;99.90
24338;DHT22;12457;50.832;4.346;2024-02-28T12:43:37;13.50;99.90
24338;DHT22;12457;50.832;4.346;2024-02-28T12:46:04;13.50;99.90
24338;DHT22;12457;50.832;4.346;2024-02-28T12:48:31;13.40;99.90
24338;DHT22;12457;50.832;4.346;2024-02-28T12:50:57;13.40;99.90
24338;DHT22;12457;50.832;4.346;2024-02-28T12:53:23;13.50;99.90
24338;DHT22;12457;50.832;4.346;2024-02-28T12:55:48;13.60;99.90
24338;DHT22;12457;50.832;4.346;2024-02-28T12:58:14;13.50;99.90
24338;DHT22;12457;50.832;4.346;2024-02-28T13:00:40;13.30;99.90
24338;DHT22;12457;50.832;4.346;2024-02-28T13:03:05;13.20;99.90
24338;DHT22;12457;50.832;4.346;2024-02-28T13:05:32;13.00;99.90
24338;DHT22;12457;50.832;4.346;2024-02-28T13:07:59;12.90;99.90
24338;DHT22;12457;50.832;4.346;2024-02-28T13:10:25;12.80;99.90
24338;DHT22;12457;50.832;4.346;2024-02-28T13:12:51;13.00;99.90
24338;DHT22;12457;50.832;4.346;2024-02-28T13:15:17;13.10;99.90
24338;DHT22;12457;50.832;4.346;2024-02-28T13:17:43;13.10;99.90
24338;DHT22;12457;50.832;4.346;2024-02-28T13:20:09;13.20;99.90
24338;DHT22;12457;50.832;4.346;2024-02-28T13:22:34;13.30;99.90
24338;DHT22;12457;50.832;4.346;2024-02-28T13:25:00;13.30;99.90
24338;DHT22;12457;50.832;4.346;2024-02-28T13:27:26;13.20;99.90
24338;DHT22;12457;50.832;4.346;2024-02-28T13:29:52;13.10;99.90
24338;DHT22;12457;50.832;4.346;2024-02-28T13:32:17;13.00;99.90
24338;DHT22;12457;50.832;4.346;2024-02-28T13:34:43;13.00;99.90
24338;DHT22;12457;50.832;4.346;2024-02-28T13:37:09;13.00;99.90
24338;DHT22;12457;50.832;4.346;2024-02-28T13:39:34;12.80;99.90
24338;DHT22;12457;50.832;4.346;2024-02-28T13:42:00;12.80;99.90
24338;DHT22;12457;50.832;4.346;2024-02-28T13:44:28;12.90;99.90
24338;DHT22;12457;50.832;4.346;2024-02-28T13:46:54;12.80;99.90
24338;DHT22;12457;50.832;4.346;2024-02-28T13:49:20;12.80;99.90
24338;DHT22;12457;50.832;4.346;2024-02-28T13:51:46;12.70;99.90
24338;DHT22;12457;50.832;4.346;2024-02-28T13:54:13;12.80;99.90
24338;DHT22;12457;50.832;4.346;2024-02-28T13:56:38;12.80;99.90
24338;DHT22;12457;50.832;4.346;2024-02-28T13:59:04;12.80;99.90
24338;DHT22;12457;50.832;4.346;2024-02-28T14:01:32;12.90;99.90
24338;DHT22;12457;50.832;4.346;2024-02-28T14:03:57;13.00;99.90
24338;DHT22;12457;50.832;4.346;2024-02-28T14:06:23;13.00;99.90
24338;DHT22;12457;50.832;4.346;2024-02-28T14:08:48;12.90;99.90
24338;DHT22;12457;50.832;4.346;2024-02-28T14:11:16;12.90;99.90
24338;DHT22;12457;50.832;4.346;2024-02-28T14:13:42;13.00;99.90
24338;DHT22;12457;50.832;4.346;2024-02-28T14:16:09;12.90;99.90
24338;DHT22;12457;50.832;4.346;2024-02-28T14:18:34;12.80;99.90
24338;DHT22;12457;50.832;4.346;2024-02-28T14:21:00;12.90;99.90
24338;DHT22;12457;50.832;4.346;2024-02-28T14:23:27;12.80;99.90
24338;DHT22;12457;50.832;4.346;2024-02-28T14:25:53;12.70;99.90
24338;DHT22;12457;50.832;4.346;2024-02-28T14:28:20;12.60;99.90
24338;DHT22;12457;50.832;4.346;2024-02-28T14:30:48;12.70;99.90
24338;DHT22;12457;50.832;4.346;2024-02-28T14:33:15;12.70;99.90
24338;DHT22;12457;50.832;4.346;2024-02-28T14:35:41;12.70;99.90
24338;DHT22;12457;50.832;4.346;2024-02-28T14:38:07;12.70;99.90
24338;DHT22;12457;50.832;4.346;2024-02-28T14:40:32;12.50;99.90
24338;DHT22;12457;50.832;4.346;2024-02-28T14:42:58;12.50;99.90
24338;DHT22;12457;50.832;4.346;2024-02-28T14:45:24;12.50;99.90
24338;DHT22;12457;50.832;4.346;2024-02-28T14:47:52;12.40;99.90
24338;DHT22;12457;50.832;4.346;2024-02-28T14:50:17;12.50;99.90
24338;DHT22;12457;50.832;4.346;2024-02-28T14:52:43;12.70;99.90
24338;DHT22;12457;50.832;4.346;2024-02-28T14:55:09;12.70;99.90
24338;DHT22;12457;50.832;4.346;2024-02-28T14:57:39;12.70;99.90
24338;DHT22;12457;50.832;4.346;2024-02-28T15:00:09;12.80;99.90
24338;DHT22;12457;50.832;4.346;2024-02-28T15:02:39;12.80;99.90
24338;DHT22;12457;50.832;4.346;2024-02-28T15:05:05;12.60;99.90
24338;DHT22;12457;50.832;4.346;2024-02-28T15:07:32;12.70;99.90
24338;DHT22;12457;50.832;4.346;2024-02-28T15:10:00;12.50;99.90
24338;DHT22;12457;50.832;4.346;2024-02-28T15:12:29;12.50;99.90
24338;DHT22;12457;50.832;4.346;2024-02-28T15:14:55;12.50;99.90
24338;DHT22;12457;50.832;4.346;2024-02-28T15:17:21;12.60;99.90
24338;DHT22;12457;50.832;4.346;2024-02-28T15:19:47;12.60;99.90
24338;DHT22;12457;50.832;4.346;2024-02-28T15:22:13;12.60;99.90
24338;DHT22;12457;50.832;4.346;2024-02-28T15:24:38;12.50;99.90
24338;DHT22;12457;50.832;4.346;2024-02-28T15:27:05;12.50;99.90
24338;DHT22;12457;50.832;4.346;2024-02-28T15:29:31;12.60;99.90
24338;DHT22;12457;50.832;4.346;2024-02-28T15:31:58;12.50;99.90
24338;DHT22;12457;50.832;4.346;2024-02-28T15:34:24;12.60;99.90
24338;DHT22;12457;50.832;4.346;2024-02-28T15:36:49;12.50;99.90